Pasco, Washington
Current Conditions -  °F | °C
As of 9:53 PM on Thursday 30 Oct 2014 (Local Time) from KPSC Reporting Station
Clear Clear  
Wind Chill: 52°   Ceiling: Unl
Heat Index: 52°   Visibility: 10mi
Dew Point: 50°   Wind: 3mph
Humidity: 93%   Direction: 220°SW
Pressure: 29.81"   Gusts: NA
Location:  46.24°N, 119.09°W
Report Text: KPSC 310453Z 22003KT 10SM CLR 11/10 A2981 RMK AO2 SLP095 T01110100
Loading
Personal Weather Stations






























Interactive Weather Map
Tropical Storm Tracking
New forecast layout! Learn more

10-Day Weather Forecast

Advertisements
Track Severe Weather on mobile